Sumpter Township, Michigan
Current Conditions -  °F | °C
As of 11:53 AM on Thursday 30 Oct 2014 (Local Time) from KYIP Reporting Station
Overcast Overcast  
Wind Chill: 51°   Ceiling: 3800
Heat Index: 51°   Visibility: 10mi
Dew Point: 35°   Wind: 5mph
Humidity: 54%   Direction: 240°WSW
Pressure: 30.15"   Gusts: NA
Location:  42.1781°N, 83.4854°W
Report Text: KYIP 301553Z 24004KT 10SM OVC038 11/02 A3015 RMK AO2 SLP210 T01060017
Loading
Personal Weather Stations






























Interactive Weather Map
Tropical Storm Tracking
New forecast layout! Learn more

10-Day Weather Forecast

Advertisements
Track Severe Weather on mobile